sensor_id;sensor_type;location;lat;lon;timestamp;pressure;altitude;pressure_sealevel;temperature;humidity
77737;BME280;66903;59.926;30.404;2023-01-19T14:51:01;100204.66;;;24.21;37.26
77737;BME280;66903;59.926;30.404;2023-01-19T14:56:05;100220.41;;;24.32;39.56
77737;BME280;66903;59.926;30.404;2023-01-19T15:01:06;100262.59;;;24.08;41.16
77737;BME280;66903;59.926;30.404;2023-01-19T15:06:14;100274.16;;;23.84;41.76
77737;BME280;66903;59.926;30.404;2023-01-19T15:11:31;100293.66;;;23.64;41.39
77737;BME280;66903;59.926;30.404;2023-01-19T15:16:33;100317.28;;;23.51;41.31
77737;BME280;66903;59.926;30.404;2023-01-19T15:21:34;100337.53;;;23.68;41.45
77737;BME280;66903;59.926;30.404;2023-01-19T15:26:36;100344.34;;;23.99;41.24
77737;BME280;66903;59.926;30.404;2023-01-19T15:31:37;100381.56;;;23.75;40.85
77737;BME280;66903;59.926;30.404;2023-01-19T15:36:38;100384.75;;;23.74;41.19
77737;BME280;66903;59.926;30.404;2023-01-19T15:41:38;100386.09;;;23.44;40.60
77737;BME280;66903;59.926;30.404;2023-01-19T15:46:39;100410.91;;;23.44;40.96
77737;BME280;66903;59.926;30.404;2023-01-19T15:51:40;100424.00;;;23.45;40.58
77737;BME280;66903;59.926;30.404;2023-01-19T15:56:40;100427.00;;;23.53;40.10
77737;BME280;66903;59.926;30.404;2023-01-19T16:01:41;100444.38;;;23.38;39.95
77737;BME280;66903;59.926;30.404;2023-01-19T16:06:42;100463.94;;;23.21;39.01
77737;BME280;66903;59.926;30.404;2023-01-19T16:11:43;100481.91;;;23.22;39.17
77737;BME280;66903;59.926;30.404;2023-01-19T16:16:44;100507.06;;;23.15;39.01
77737;BME280;66903;59.926;30.404;2023-01-19T16:21:45;100511.94;;;22.90;38.09
77737;BME280;66903;59.926;30.404;2023-01-19T16:26:45;100530.84;;;22.81;37.47
77737;BME280;66903;59.926;30.404;2023-01-19T16:31:46;100555.66;;;22.76;37.11
77737;BME280;66903;59.926;30.404;2023-01-19T16:36:47;100571.34;;;22.73;36.65
77737;BME280;66903;59.926;30.404;2023-01-19T16:41:48;100553.38;;;22.78;36.94
77737;BME280;66903;59.926;30.404;2023-01-19T16:46:48;100586.44;;;22.74;36.18
77737;BME280;66903;59.926;30.404;2023-01-19T16:51:49;100585.81;;;22.77;35.87
77737;BME280;66903;59.926;30.404;2023-01-19T16:56:52;100602.16;;;22.95;35.79
77737;BME280;66903;59.926;30.404;2023-01-19T17:01:54;100605.81;;;23.29;35.25
77737;BME280;66903;59.926;30.404;2023-01-19T17:06:55;100607.59;;;23.44;37.06
77737;BME280;66903;59.926;30.404;2023-01-19T17:11:55;100613.19;;;23.54;38.47
77737;BME280;66903;59.926;30.404;2023-01-19T17:16:57;100621.13;;;23.33;38.11
77737;BME280;66903;59.926;30.404;2023-01-19T17:21:57;100631.19;;;23.26;38.28
77737;BME280;66903;59.926;30.404;2023-01-19T17:26:58;100648.88;;;23.23;38.15
77737;BME280;66903;59.926;30.404;2023-01-19T17:31:58;100680.28;;;23.18;37.99
77737;BME280;66903;59.926;30.404;2023-01-19T17:36:59;100705.09;;;23.17;37.27
77737;BME280;66903;59.926;30.404;2023-01-19T17:42:02;100712.59;;;23.08;37.20
77737;BME280;66903;59.926;30.404;2023-01-19T17:47:02;100709.59;;;22.89;36.54
77737;BME280;66903;59.926;30.404;2023-01-19T17:52:04;100712.56;;;22.79;36.43
77737;BME280;66903;59.926;30.404;2023-01-19T17:57:04;100736.81;;;22.72;36.14
77737;BME280;66903;59.926;30.404;2023-01-19T18:02:05;100728.91;;;22.64;35.83
77737;BME280;66903;59.926;30.404;2023-01-19T18:07:06;100738.53;;;22.73;35.72
77737;BME280;66903;59.926;30.404;2023-01-19T18:12:06;100745.31;;;23.11;35.20
77737;BME280;66903;59.926;30.404;2023-01-19T18:17:07;100753.34;;;23.66;34.86
77737;BME280;66903;59.926;30.404;2023-01-19T18:22:07;100762.50;;;23.63;37.81
77737;BME280;66903;59.926;30.404;2023-01-19T18:27:08;100776.34;;;24.03;38.38
77737;BME280;66903;59.926;30.404;2023-01-19T18:32:09;100788.50;;;24.08;38.10
77737;BME280;66903;59.926;30.404;2023-01-19T18:37:11;100801.66;;;24.09;38.44
77737;BME280;66903;59.926;30.404;2023-01-19T18:42:11;100816.81;;;24.05;38.48
77737;BME280;66903;59.926;30.404;2023-01-19T18:47:12;100842.25;;;24.01;38.13
77737;BME280;66903;59.926;30.404;2023-01-19T18:52:13;100837.72;;;23.95;38.34
77737;BME280;66903;59.926;30.404;2023-01-19T18:57:13;100852.06;;;23.90;38.33
77737;BME280;66903;59.926;30.404;2023-01-19T19:02:17;100861.75;;;23.89;38.41
77737;BME280;66903;59.926;30.404;2023-01-19T19:07:17;100863.78;;;23.89;38.44
77737;BME280;66903;59.926;30.404;2023-01-19T19:12:18;100865.47;;;23.90;38.17
77737;BME280;66903;59.926;30.404;2023-01-19T19:17:18;100885.19;;;23.86;38.64
77737;BME280;66903;59.926;30.404;2023-01-19T19:22:19;100892.53;;;23.64;38.88
77737;BME280;66903;59.926;30.404;2023-01-19T19:27:20;100916.63;;;23.48;39.06
77737;BME280;66903;59.926;30.404;2023-01-19T19:32:20;100930.63;;;23.44;39.79
77737;BME280;66903;59.926;30.404;2023-01-19T19:37:23;100936.03;;;23.46;39.26
77737;BME280;66903;59.926;30.404;2023-01-19T19:42:23;100941.63;;;23.12;38.38
77737;BME280;66903;59.926;30.404;2023-01-19T19:47:24;100946.63;;;22.86;37.76
77737;BME280;66903;59.926;30.404;2023-01-19T19:52:25;100956.94;;;22.72;37.10
77737;BME280;66903;59.926;30.404;2023-01-19T19:57:26;100948.72;;;22.66;36.74
77737;BME280;66903;59.926;30.404;2023-01-19T20:02:27;100951.88;;;22.49;36.14
77737;BME280;66903;59.926;30.404;2023-01-19T20:07:28;100961.00;;;22.56;36.33
77737;BME280;66903;59.926;30.404;2023-01-19T20:12:28;100965.41;;;22.87;36.04
77737;BME280;66903;59.926;30.404;2023-01-19T20:17:29;100983.31;;;23.03;35.65
77737;BME280;66903;59.926;30.404;2023-01-19T20:22:31;100991.53;;;23.10;35.55
77737;BME280;66903;59.926;30.404;2023-01-19T20:27:33;100989.81;;;23.14;35.61
77737;BME280;66903;59.926;30.404;2023-01-19T20:32:34;100980.97;;;23.15;35.43
77737;BME280;66903;59.926;30.404;2023-01-19T20:37:34;100974.41;;;23.15;35.24
77737;BME280;66903;59.926;30.404;2023-01-19T20:42:35;100982.91;;;23.20;35.33
77737;BME280;66903;59.926;30.404;2023-01-19T20:47:37;100991.09;;;23.41;38.29
77737;BME280;66903;59.926;30.404;2023-01-19T20:52:37;100998.41;;;23.57;38.20
77737;BME280;66903;59.926;30.404;2023-01-19T20:57:38;101005.16;;;23.71;38.11
77737;BME280;66903;59.926;30.404;2023-01-19T21:02:38;101004.25;;;23.76;38.29
77737;BME280;66903;59.926;30.404;2023-01-19T21:07:39;101006.47;;;23.84;38.03
77737;BME280;66903;59.926;30.404;2023-01-19T21:12:39;101000.94;;;23.97;37.84
77737;BME280;66903;59.926;30.404;2023-01-19T21:17:40;101015.50;;;24.01;37.45
77737;BME280;66903;59.926;30.404;2023-01-19T21:22:40;101024.94;;;23.91;37.40
77737;BME280;66903;59.926;30.404;2023-01-19T21:27:40;101047.94;;;11.43;51.87
77737;BME280;66903;59.926;30.404;2023-01-19T21:32:41;101037.41;;;14.82;54.10
77737;BME280;66903;59.926;30.404;2023-01-19T21:37:41;101045.81;;;20.87;43.87
77737;BME280;66903;59.926;30.404;2023-01-19T21:42:42;101050.13;;;22.22;41.61
77737;BME280;66903;59.926;30.404;2023-01-19T21:47:42;101059.00;;;23.19;40.59
77737;BME280;66903;59.926;30.404;2023-01-19T21:52:43;101065.31;;;23.75;39.88
77737;BME280;66903;59.926;30.404;2023-01-19T21:57:43;101065.22;;;23.85;39.79
77737;BME280;66903;59.926;30.404;2023-01-19T22:02:44;101073.34;;;23.68;40.34
77737;BME280;66903;59.926;30.404;2023-01-19T22:07:44;101066.78;;;23.67;40.33
77737;BME280;66903;59.926;30.404;2023-01-19T22:18:39;101071.78;;;23.85;40.04
77737;BME280;66903;59.926;30.404;2023-01-19T22:23:40;101077.16;;;23.92;39.56
77737;BME280;66903;59.926;30.404;2023-01-19T22:28:41;101072.88;;;23.89;39.74
77737;BME280;66903;59.926;30.404;2023-01-19T22:33:42;101088.28;;;23.93;39.11
77737;BME280;66903;59.926;30.404;2023-01-19T22:38:58;101100.25;;;23.95;39.29
77737;BME280;66903;59.926;30.404;2023-01-19T22:50:41;101086.16;;;24.14;39.25
77737;BME280;66903;59.926;30.404;2023-01-19T22:56:38;101106.06;;;24.19;38.72
77737;BME280;66903;59.926;30.404;2023-01-19T23:01:54;101098.06;;;24.21;38.81
77737;BME280;66903;59.926;30.404;2023-01-19T23:06:55;101093.22;;;24.22;39.08
77737;BME280;66903;59.926;30.404;2023-01-19T23:11:55;101094.03;;;24.27;38.74
77737;BME280;66903;59.926;30.404;2023-01-19T23:16:56;101103.41;;;24.33;38.78
77737;BME280;66903;59.926;30.404;2023-01-19T23:21:56;101106.84;;;24.30;38.59
77737;BME280;66903;59.926;30.404;2023-01-19T23:26:56;101112.03;;;24.23;38.55
77737;BME280;66903;59.926;30.404;2023-01-19T23:44:09;101114.28;;;24.31;39.40
77737;BME280;66903;59.926;30.404;2023-01-19T23:55:18;101106.31;;;24.28;39.41
